createdAt,value
2022-09-24T00:01:49.043Z,6.50
2022-09-24T00:04:16.784Z,6.80
2022-09-24T00:06:46.690Z,6.40
2022-09-24T00:09:16.498Z,6.50
2022-09-24T00:11:45.812Z,6.50
2022-09-24T00:14:13.706Z,6.50
2022-09-24T00:19:10.449Z,6.50
2022-09-24T00:21:38.610Z,6.50
2022-09-24T00:24:32.729Z,6.50
2022-09-24T00:29:29.378Z,6.50
2022-09-24T00:31:57.309Z,6.50
2022-09-24T00:36:53.546Z,6.50
2022-09-24T00:39:21.427Z,6.50
2022-09-24T00:41:49.265Z,6.30
2022-09-24T00:44:45.528Z,6.50
2022-09-24T00:47:12.752Z,6.60
2022-09-24T00:49:40.853Z,6.50
2022-09-24T00:52:09.096Z,6.50
2022-09-24T00:54:37.424Z,6.60
2022-09-24T00:57:04.971Z,6.70
2022-09-24T00:59:33.448Z,6.70
2022-09-24T01:04:30.981Z,6.80
2022-09-24T01:06:58.873Z,6.70
2022-09-24T01:09:27.577Z,6.70
2022-09-24T01:12:28.779Z,6.70
2022-09-24T01:15:36.863Z,6.70
2022-09-24T01:18:07.681Z,6.70
2022-09-24T01:21:13.787Z,6.70
2022-09-24T01:23:53.289Z,6.70
2022-09-24T01:26:39.655Z,6.70
2022-09-24T01:32:06.536Z,6.70
2022-09-24T01:34:58.213Z,6.60
2022-09-24T01:37:28.789Z,6.60
2022-09-24T01:39:57.524Z,6.60
2022-09-24T01:42:29.115Z,6.60
2022-09-24T01:44:58.358Z,6.60
2022-09-24T01:47:39.696Z,6.60
2022-09-24T01:50:09.765Z,6.50
2022-09-24T01:53:07.191Z,6.50
2022-09-24T01:55:39.195Z,6.50
2022-09-24T01:58:11.759Z,6.50
2022-09-24T02:00:42.699Z,6.50
2022-09-24T02:03:15.747Z,6.60
2022-09-24T02:05:51.223Z,6.60
2022-09-24T02:08:28.791Z,6.60
2022-09-24T02:11:14.725Z,6.40
2022-09-24T02:13:52.350Z,6.70
2022-09-24T02:16:24.605Z,6.70
2022-09-24T02:18:54.588Z,6.70
2022-09-24T02:21:24.307Z,6.70
2022-09-24T02:24:00.341Z,6.70
2022-09-24T02:26:28.091Z,6.60
2022-09-24T02:31:47.771Z,6.80
2022-09-24T02:34:23.708Z,6.90
2022-09-24T02:36:54.826Z,6.90
2022-09-24T02:39:22.741Z,6.90
2022-09-24T02:41:52.104Z,6.70
2022-09-24T02:44:19.834Z,6.90
2022-09-24T02:46:48.928Z,6.90
2022-09-24T02:49:16.934Z,6.90
2022-09-24T02:54:12.820Z,6.90
2022-09-24T02:56:40.407Z,6.90
2022-09-24T02:59:09.170Z,6.90
2022-09-24T03:01:37.077Z,6.80
2022-09-24T03:04:04.691Z,5.90
2022-09-24T03:06:32.129Z,6.80
2022-09-24T03:08:59.626Z,6.80
2022-09-24T03:13:55.205Z,6.70
2022-09-24T03:16:22.906Z,6.60
2022-09-24T03:18:50.692Z,6.60
2022-09-24T03:21:20.814Z,6.50
2022-09-24T03:23:48.405Z,6.60
2022-09-24T03:28:43.697Z,6.50
2022-09-24T03:31:11.688Z,6.50
2022-09-24T03:33:40.216Z,6.50
2022-09-24T03:36:11.108Z,6.50
2022-09-24T03:38:40.214Z,6.40
2022-09-24T03:41:09.030Z,6.40
2022-09-24T03:43:37.201Z,6.40
2022-09-24T03:46:07.016Z,6.30
2022-09-24T03:48:37.189Z,6.30
2022-09-24T03:51:12.776Z,6.70
2022-09-24T03:53:40.728Z,6.30
2022-09-24T03:56:08.984Z,6.20
2022-09-24T03:58:38.080Z,6.20
2022-09-24T04:01:12.187Z,6.20
2022-09-24T04:06:08.012Z,6.20
2022-09-24T04:08:35.647Z,6.20
2022-09-24T04:11:03.653Z,6.20
2022-09-24T04:13:31.204Z,6.20
2022-09-24T04:16:03.516Z,6.10
2022-09-24T04:18:34.621Z,6.10
2022-09-24T04:21:04.385Z,4.20
2022-09-24T04:23:31.858Z,6.10
2022-09-24T04:26:02.463Z,5.80
2022-09-24T04:28:31.724Z,6.10
2022-09-24T04:30:59.433Z,6.10
2022-09-24T04:33:28.619Z,6.10
2022-09-24T04:35:56.468Z,6.10
2022-09-24T04:38:24.089Z,6.00
2022-09-24T04:40:51.887Z,6.00
2022-09-24T04:43:19.481Z,6.00
2022-09-24T04:45:47.350Z,6.00
2022-09-24T04:50:46.057Z,6.10
2022-09-24T04:53:14.461Z,5.60
2022-09-24T04:55:42.254Z,5.90
2022-09-24T04:58:11.496Z,6.20
2022-09-24T05:00:40.391Z,6.20
2022-09-24T05:03:08.128Z,6.20
2022-09-24T05:05:36.488Z,6.10
2022-09-24T05:08:04.862Z,6.20
2022-09-24T05:13:01.787Z,6.30
2022-09-24T05:15:29.623Z,6.30
2022-09-24T05:17:57.510Z,6.30
2022-09-24T05:20:25.495Z,6.30
2022-09-24T05:22:52.971Z,6.30
2022-09-24T05:25:21.960Z,6.30
2022-09-24T05:27:55.299Z,6.30
2022-09-24T05:30:27.381Z,6.30
2022-09-24T05:32:55.097Z,6.40
2022-09-24T05:35:24.398Z,6.40
2022-09-24T05:37:55.137Z,6.50
2022-09-24T05:40:41.258Z,6.60
2022-09-24T05:43:08.876Z,6.60
2022-09-24T05:45:37.600Z,6.70
2022-09-24T05:50:35.131Z,6.90
2022-09-24T05:53:02.988Z,7.00
2022-09-24T05:58:04.933Z,7.10
2022-09-24T06:00:32.744Z,7.10
2022-09-24T06:03:05.888Z,7.30
2022-09-24T06:05:35.439Z,7.30
2022-09-24T06:08:08.168Z,8.50
2022-09-24T06:10:37.010Z,7.50
2022-09-24T06:13:04.769Z,7.50
2022-09-24T06:15:32.565Z,7.60
2022-09-24T06:22:57.577Z,7.70
2022-09-24T06:25:26.514Z,7.80
2022-09-24T06:28:01.748Z,7.80
2022-09-24T06:30:31.437Z,7.80
2022-09-24T06:33:06.862Z,7.90
2022-09-24T06:35:42.111Z,8.00
2022-09-24T06:38:13.262Z,8.10
2022-09-24T06:40:41.088Z,7.80
2022-09-24T06:43:10.908Z,9.20
2022-09-24T06:45:39.807Z,8.30
2022-09-24T06:48:07.819Z,8.30
2022-09-24T06:50:35.900Z,8.20
2022-09-24T06:53:07.028Z,8.60
2022-09-24T06:55:35.970Z,8.70
2022-09-24T06:58:14.572Z,8.70
2022-09-24T07:00:43.210Z,8.80
2022-09-24T07:03:17.430Z,8.90
2022-09-24T07:05:45.105Z,8.90
2022-09-24T07:08:13.136Z,9.30
2022-09-24T07:10:45.431Z,9.10
2022-09-24T07:13:17.285Z,9.10
2022-09-24T07:15:46.004Z,9.20
2022-09-24T07:18:13.707Z,9.30
2022-09-24T07:20:41.573Z,9.50
2022-09-24T07:23:11.191Z,9.30
2022-09-24T07:25:39.017Z,9.50
2022-09-24T07:28:09.990Z,9.50
2022-09-24T07:30:40.559Z,9.40
2022-09-24T07:33:08.755Z,9.40
2022-09-24T07:35:39.180Z,9.60
2022-09-24T07:38:12.483Z,9.60
2022-09-24T07:40:40.493Z,9.70
2022-09-24T07:45:41.903Z,10.10
2022-09-24T07:48:11.309Z,10.20
2022-09-24T07:50:42.887Z,10.40
2022-09-24T07:53:14.048Z,10.50
2022-09-24T07:55:41.772Z,10.40
2022-09-24T07:58:14.480Z,10.40
2022-09-24T08:00:42.614Z,10.40
2022-09-24T08:03:10.852Z,10.40
2022-09-24T08:05:45.596Z,10.40
2022-09-24T08:08:13.822Z,10.30
2022-09-24T08:10:42.216Z,10.20
2022-09-24T08:13:09.620Z,10.30
2022-09-24T08:15:37.429Z,10.30
2022-09-24T08:18:05.664Z,10.30
2022-09-24T08:20:37.889Z,10.30
2022-09-24T08:23:10.070Z,10.30
2022-09-24T08:25:38.104Z,10.30
2022-09-24T08:28:06.948Z,10.40
2022-09-24T08:30:41.266Z,10.50
2022-09-24T08:33:12.798Z,10.40
2022-09-24T08:35:43.294Z,10.40
2022-09-24T08:38:13.452Z,10.60
2022-09-24T08:40:51.411Z,10.80
2022-09-24T08:43:40.956Z,10.90
2022-09-24T08:46:59.210Z,12.00
2022-09-24T08:49:34.827Z,11.00
2022-09-24T08:52:33.005Z,10.90
2022-09-24T08:55:10.278Z,11.20
2022-09-24T09:00:14.915Z,11.80
2022-09-24T09:03:06.801Z,11.80
2022-09-24T09:05:49.657Z,11.90
2022-09-24T09:09:16.175Z,11.90
2022-09-24T09:11:33.159Z,11.80
2022-09-24T09:14:09.072Z,11.70
2022-09-24T09:16:53.773Z,11.80
2022-09-24T09:19:25.423Z,12.10
2022-09-24T09:22:28.372Z,12.10
2022-09-24T09:25:04.760Z,12.10
2022-09-24T09:27:32.977Z,12.00
2022-09-24T09:30:08.133Z,12.10
2022-09-24T09:32:54.172Z,12.10
2022-09-24T09:35:42.577Z,11.90
2022-09-24T09:38:59.416Z,11.90
2022-09-24T09:41:47.156Z,11.80
2022-09-24T09:44:26.953Z,11.70
2022-09-24T09:47:20.057Z,11.70
2022-09-24T09:49:50.802Z,11.70
2022-09-24T09:52:24.963Z,11.50
2022-09-24T09:54:52.500Z,11.40
2022-09-24T09:57:24.186Z,12.00
2022-09-24T09:59:54.169Z,11.60
2022-09-24T10:02:27.829Z,11.60
2022-09-24T10:05:06.854Z,11.60
2022-09-24T10:07:45.324Z,11.70
2022-09-24T10:10:25.236Z,11.70
2022-09-24T10:13:10.247Z,11.70
2022-09-24T10:15:58.871Z,11.70
2022-09-24T10:18:32.939Z,11.70
2022-09-24T10:21:03.435Z,11.70
2022-09-24T10:23:38.212Z,11.80
2022-09-24T10:26:06.517Z,11.80
2022-09-24T10:28:56.768Z,11.80
2022-09-24T10:31:29.257Z,11.70
2022-09-24T10:33:58.864Z,11.70
2022-09-24T10:36:28.815Z,11.70
2022-09-24T10:39:08.473Z,11.80
2022-09-24T10:41:36.147Z,11.90
2022-09-24T10:44:11.842Z,11.90
2022-09-24T10:46:57.727Z,12.00
2022-09-24T10:50:02.259Z,12.10
2022-09-24T10:52:44.668Z,12.20
2022-09-24T10:55:27.185Z,12.20
2022-09-24T10:58:06.454Z,12.20
2022-09-24T11:00:52.274Z,12.30
2022-09-24T11:03:47.527Z,12.80
2022-09-24T11:06:41.462Z,12.50
2022-09-24T11:09:39.093Z,12.50
2022-09-24T11:12:45.980Z,12.40
2022-09-24T11:15:34.399Z,12.50
2022-09-24T11:18:33.859Z,12.60
2022-09-24T11:21:25.700Z,12.70
2022-09-24T11:24:08.288Z,12.80
2022-09-24T11:27:00.906Z,13.20
2022-09-24T11:29:47.669Z,13.90
2022-09-24T11:32:41.442Z,14.10
2022-09-24T11:35:37.512Z,16.50
2022-09-24T11:38:36.142Z,16.60
2022-09-24T11:41:41.994Z,17.10
2022-09-24T11:44:13.685Z,17.70
2022-09-24T11:47:06.385Z,17.50
2022-09-24T11:49:43.637Z,17.60
2022-09-24T11:52:39.869Z,18.20
2022-09-24T11:55:22.669Z,18.90
2022-09-24T11:58:11.330Z,18.90
2022-09-24T12:03:33.399Z,19.50
2022-09-24T12:06:31.995Z,18.90
2022-09-24T12:09:17.161Z,19.40
2022-09-24T12:11:52.255Z,19.20
2022-09-24T12:14:30.019Z,19.30
2022-09-24T12:17:06.744Z,18.90
2022-09-24T12:19:42.061Z,18.40
2022-09-24T12:22:10.974Z,17.50
2022-09-24T12:24:52.862Z,17.40
2022-09-24T12:27:37.903Z,17.00
2022-09-24T12:30:51.464Z,16.50
2022-09-24T12:33:29.817Z,16.20
2022-09-24T12:36:04.632Z,16.10
2022-09-24T12:41:32.154Z,16.20
2022-09-24T12:44:22.990Z,16.20
2022-09-24T12:46:56.161Z,16.10
2022-09-24T12:49:32.170Z,15.80
2022-09-24T12:52:02.435Z,15.60
2022-09-24T12:54:34.979Z,15.40
2022-09-24T12:57:12.361Z,15.20
2022-09-24T12:59:59.946Z,15.10
2022-09-24T13:02:47.957Z,14.90
2022-09-24T13:05:23.747Z,15.00
2022-09-24T13:08:00.970Z,15.10
2022-09-24T13:10:34.548Z,15.00
2022-09-24T13:13:04.439Z,14.90
2022-09-24T13:15:34.664Z,14.80
2022-09-24T13:18:25.873Z,14.80
2022-09-24T13:21:24.360Z,14.60
2022-09-24T13:23:52.415Z,15.90
2022-09-24T13:29:23.416Z,14.20
2022-09-24T13:32:02.981Z,14.00
2022-09-24T13:34:32.405Z,13.80
2022-09-24T13:40:00.977Z,13.70
2022-09-24T13:45:06.181Z,13.50
2022-09-24T13:47:56.857Z,13.40
2022-09-24T13:50:35.382Z,13.30
2022-09-24T13:53:14.823Z,13.30
2022-09-24T13:58:34.162Z,13.40
2022-09-24T14:01:08.739Z,13.50
2022-09-24T14:03:40.312Z,13.50
2022-09-24T14:06:20.245Z,13.80
2022-09-24T14:08:48.048Z,14.20
2022-09-24T14:11:26.595Z,14.20
2022-09-24T14:13:59.365Z,14.20
2022-09-24T14:16:27.293Z,14.10
2022-09-24T14:19:06.164Z,13.90
2022-09-24T14:21:52.165Z,13.80
2022-09-24T14:24:34.144Z,13.60
2022-09-24T14:27:09.280Z,13.50
2022-09-24T14:29:56.199Z,13.40
2022-09-24T14:32:25.258Z,13.40
2022-09-24T14:34:55.357Z,13.30
2022-09-24T14:37:31.642Z,13.40
2022-09-24T14:40:07.622Z,13.30
2022-09-24T14:42:44.401Z,13.30
2022-09-24T14:45:22.470Z,13.30
2022-09-24T14:48:04.684Z,13.20
2022-09-24T14:50:35.516Z,13.20
2022-09-24T14:53:12.103Z,13.20
2022-09-24T14:55:42.045Z,13.40
2022-09-24T14:58:32.455Z,13.50
2022-09-24T15:01:14.077Z,13.60
2022-09-24T15:06:28.734Z,13.70
2022-09-24T15:09:23.811Z,13.70
2022-09-24T15:11:55.513Z,13.80
2022-09-24T15:14:27.763Z,13.70
2022-09-24T15:16:56.968Z,13.40
2022-09-24T15:19:28.902Z,13.40
2022-09-24T15:21:57.788Z,13.30
2022-09-24T15:24:26.087Z,13.20
2022-09-24T15:27:29.643Z,12.90
2022-09-24T15:32:32.624Z,12.70
2022-09-24T15:35:00.514Z,12.60
2022-09-24T15:37:30.043Z,12.60
2022-09-24T15:40:01.023Z,12.50
2022-09-24T15:42:28.514Z,12.40
2022-09-24T15:44:59.080Z,12.30
2022-09-24T15:47:26.690Z,12.20
2022-09-24T15:49:54.170Z,12.20
2022-09-24T15:52:26.989Z,12.00
2022-09-24T15:54:56.763Z,12.10
2022-09-24T15:57:24.506Z,11.90
2022-09-24T15:59:52.222Z,11.80
2022-09-24T16:02:27.442Z,11.80
2022-09-24T16:04:56.667Z,11.70
2022-09-24T16:07:27.387Z,11.80
2022-09-24T16:09:54.954Z,11.60
2022-09-24T16:12:22.977Z,11.50
2022-09-24T16:14:51.752Z,11.40
2022-09-24T16:17:19.249Z,11.40
2022-09-24T16:19:46.842Z,11.30
2022-09-24T16:22:20.211Z,11.20
2022-09-24T16:24:48.216Z,11.10
2022-09-24T16:27:16.029Z,11.00
2022-09-24T16:29:44.302Z,11.00
2022-09-24T16:32:13.896Z,10.80
2022-09-24T16:37:10.198Z,10.60
2022-09-24T16:39:37.824Z,10.50
2022-09-24T16:42:05.525Z,10.30
2022-09-24T16:44:33.086Z,10.30
2022-09-24T16:47:00.822Z,10.20
2022-09-24T16:49:28.337Z,10.00
2022-09-24T16:51:56.002Z,9.90
2022-09-24T16:54:26.613Z,10.70
2022-09-24T16:56:56.406Z,9.70
2022-09-24T16:59:24.088Z,9.60
2022-09-24T17:01:51.843Z,9.50
2022-09-24T17:04:19.475Z,9.40
2022-09-24T17:06:47.320Z,9.30
2022-09-24T17:09:37.766Z,9.20
2022-09-24T17:12:05.528Z,9.10
2022-09-24T17:14:33.166Z,9.00
2022-09-24T17:17:02.471Z,8.90
2022-09-24T17:19:30.150Z,8.80
2022-09-24T17:21:59.084Z,8.70
2022-09-24T17:24:26.656Z,8.50
2022-09-24T17:26:55.163Z,8.50
2022-09-24T17:29:28.986Z,8.40
2022-09-24T17:31:58.081Z,8.70
2022-09-24T17:34:25.847Z,8.30
2022-09-24T17:36:53.578Z,8.30
2022-09-24T17:39:21.073Z,8.20
2022-09-24T17:41:48.796Z,8.30
2022-09-24T17:44:18.019Z,8.20
2022-09-24T17:46:45.969Z,8.20
2022-09-24T17:49:13.999Z,8.10
2022-09-24T17:51:41.493Z,8.10
2022-09-24T17:54:14.835Z,8.20
2022-09-24T17:56:42.744Z,8.20
2022-09-24T17:59:12.239Z,8.20
2022-09-24T18:04:20.830Z,8.20
2022-09-24T18:06:49.742Z,8.10
2022-09-24T18:09:18.810Z,8.10
2022-09-24T18:11:49.530Z,8.10
2022-09-24T18:14:19.416Z,8.10
2022-09-24T18:16:49.239Z,8.10
2022-09-24T18:19:17.642Z,8.00
2022-09-24T18:21:49.325Z,8.00
2022-09-24T18:24:16.999Z,8.00
2022-09-24T18:29:19.383Z,7.80
2022-09-24T18:31:46.962Z,7.90
2022-09-24T18:34:16.175Z,7.90
2022-09-24T18:36:45.064Z,7.90
2022-09-24T18:39:15.845Z,8.10
2022-09-24T18:41:45.142Z,7.90
2022-09-24T18:44:13.000Z,7.80
2022-09-24T18:46:41.353Z,7.80
2022-09-24T18:49:10.020Z,7.80
2022-09-24T18:51:38.599Z,7.70
2022-09-24T18:54:08.985Z,7.70
2022-09-24T18:56:36.555Z,7.70
2022-09-24T18:59:09.683Z,7.50
2022-09-24T19:01:37.597Z,7.50
2022-09-24T19:04:05.868Z,7.50
2022-09-24T19:06:35.638Z,7.40
2022-09-24T19:09:04.958Z,7.30
2022-09-24T19:11:34.154Z,7.20
2022-09-24T19:14:04.960Z,7.20
2022-09-24T19:16:32.630Z,7.20
2022-09-24T19:19:01.744Z,7.00
2022-09-24T19:21:29.301Z,7.00
2022-09-24T19:23:58.154Z,6.80
2022-09-24T19:26:29.235Z,6.80
2022-09-24T19:28:57.241Z,6.70
2022-09-24T19:31:48.873Z,6.60
2022-09-24T19:34:16.570Z,6.60
2022-09-24T19:36:45.297Z,6.50
2022-09-24T19:39:16.691Z,6.40
2022-09-24T19:41:44.993Z,6.40
2022-09-24T19:46:41.226Z,6.30
2022-09-24T19:49:09.010Z,6.20
2022-09-24T19:51:37.345Z,6.10
2022-09-24T19:54:09.102Z,6.00
2022-09-24T19:56:37.549Z,4.60
2022-09-24T19:59:05.875Z,6.00
2022-09-24T20:01:37.872Z,5.90
2022-09-24T20:04:07.553Z,6.00
2022-09-24T20:06:36.995Z,5.80
2022-09-24T20:09:05.250Z,5.80
2022-09-24T20:11:33.020Z,5.70
2022-09-24T20:14:01.902Z,5.70
2022-09-24T20:16:33.229Z,5.60
2022-09-24T20:19:03.050Z,5.60
2022-09-24T20:21:34.800Z,5.60
2022-09-24T20:24:03.790Z,5.50
2022-09-24T20:29:19.905Z,5.40
2022-09-24T20:31:52.121Z,5.50
2022-09-24T20:34:28.925Z,5.40
2022-09-24T20:36:58.530Z,5.40
2022-09-24T20:39:27.051Z,5.30
2022-09-24T20:41:54.889Z,5.40
2022-09-24T20:44:25.377Z,5.40
2022-09-24T20:46:52.864Z,5.40
2022-09-24T20:51:57.248Z,5.30
2022-09-24T20:54:26.343Z,5.30
2022-09-24T20:56:53.997Z,5.30
2022-09-24T20:59:21.583Z,5.30
2022-09-24T21:01:49.676Z,5.30
2022-09-24T21:04:20.111Z,5.40
2022-09-24T21:06:48.803Z,5.30
2022-09-24T21:09:17.205Z,5.30
2022-09-24T21:11:44.704Z,5.30
2022-09-24T21:14:12.622Z,5.30
2022-09-24T21:16:40.887Z,5.30
2022-09-24T21:19:08.295Z,5.30
2022-09-24T21:21:39.170Z,5.30
2022-09-24T21:24:10.725Z,5.30
2022-09-24T21:26:39.881Z,5.30
2022-09-24T21:29:10.054Z,5.30
2022-09-24T21:31:38.813Z,5.30
2022-09-24T21:34:07.339Z,5.20
2022-09-24T21:36:44.023Z,5.20
2022-09-24T21:39:17.910Z,5.20
2022-09-24T21:41:49.988Z,5.20
2022-09-24T21:44:20.360Z,5.20
2022-09-24T21:46:50.994Z,5.20
2022-09-24T21:49:19.555Z,5.20
2022-09-24T21:51:47.366Z,5.20
2022-09-24T21:54:17.456Z,5.30
2022-09-24T21:56:45.767Z,5.40
2022-09-24T21:59:32.177Z,5.50
2022-09-24T22:02:01.220Z,5.60
2022-09-24T22:04:29.583Z,5.80
2022-09-24T22:06:57.154Z,5.90
2022-09-24T22:09:25.537Z,6.00
2022-09-24T22:11:53.859Z,6.00
2022-09-24T22:14:21.499Z,6.10
2022-09-24T22:16:48.912Z,6.20
2022-09-24T22:19:16.440Z,6.30
2022-09-24T22:24:12.115Z,6.40
2022-09-24T22:26:40.571Z,6.40
2022-09-24T22:29:08.025Z,6.50
2022-09-24T22:31:35.793Z,6.50
2022-09-24T22:34:21.801Z,6.50
2022-09-24T22:39:17.107Z,6.70
2022-09-24T22:41:44.718Z,6.70
2022-09-24T22:44:12.479Z,6.70
2022-09-24T22:46:41.424Z,6.70
2022-09-24T22:49:11.452Z,6.70
2022-09-24T22:51:39.591Z,6.80
2022-09-24T22:54:07.901Z,6.70
2022-09-24T22:56:36.201Z,6.70
2022-09-24T22:59:04.187Z,6.70
2022-09-24T23:01:35.077Z,6.70
2022-09-24T23:06:32.926Z,6.50
2022-09-24T23:09:00.809Z,6.70
2022-09-24T23:11:31.127Z,6.70
2022-09-24T23:14:06.931Z,6.70
2022-09-24T23:16:36.373Z,6.70
2022-09-24T23:19:06.914Z,6.80
2022-09-24T23:21:37.307Z,6.90
2022-09-24T23:24:07.455Z,6.90
2022-09-24T23:26:35.987Z,6.90
2022-09-24T23:29:03.673Z,6.90
2022-09-24T23:31:34.289Z,7.20
2022-09-24T23:36:31.969Z,7.00
2022-09-24T23:39:00.997Z,7.00
2022-09-24T23:41:30.000Z,7.00
2022-09-24T23:46:28.043Z,7.00
2022-09-24T23:48:56.254Z,7.00
2022-09-24T23:51:24.033Z,7.00
2022-09-24T23:53:51.674Z,7.00
2022-09-24T23:56:20.003Z,7.00
2022-09-24T23:58:47.638Z,7.10
